메인 페이지
METAR-TAF:

METAR-TAF

공항 :

오데사, 우크라이나

위도: 46-26N, 경도: 030-46E, 고도: 42m

현재 날씨관측

예보는 39분 전, 08:30시(UTC)에 발표되었습니다.
12kt
온도 10°C
습도 87%
기압 1015 hPa
시정 10km 이상
고도 1300ft 상공 구름 보통

METAR: UKOO 090830Z 19006MPS 9999 SCT013 10/08 Q1015 R16/090060 NOSIG

시각: 11:09 (09:09 UTC)

예보

예보는 4 시간 2분 전, 05:07시(UTC)에 발표되었습니다.
예보 대상 시간: 09일 06시부터 10일 06시까지 (UTC)
6kt
시정: 2100m
고도 700ft 상공 구름 많음
고도 1500ft 상공 구름 보통, 적란운.
박무
확률 40% :
일시적
09일 06시부터 09일 09시까지 (UTC)
시정: 0400m
고도 200ft 상공
안개
전환 중
09일 09시부터 09일 10시까지 (UTC)
12kt, 순간 최대 풍속 23kt
시정: 6000m
전환 중
09일 16시부터 09일 17시까지 (UTC)
시정: 2100m
박무

TAF: UKOO 090507Z 0906/1006 17003MPS 2100 BR BKN007 SCT015CB TX10/0912Z TN00/1004Z PROB40 TEMPO 0906/0909 0400 FG VV002 BECMG 0909/0910 19006G12MPS 6000 NSW BECMG 0916/0917 2100 BR

4,000개 이상의 공항 관측 자료 및 예보 (METAR 및 TAF 보고).

지도상에서 검색 가능한 기상관측소가 노란 점과 빨간 점으로 표시되어 있습니다.

기상관측소 명을 보려면 표시 위로 마우스를 이동하세요.

날씨 관측과 예보를 보려면 클릭하세요.

지도 변경 : 확대하려면 엑스 표시가 있는 녹색 버튼, 축소하려면 빼기 표시가 있는 녹색 버튼, 다음 페이지의 지도를 보려면 녹색 화살표를 클릭하세요.


METAR-TAF: